createdAt,value
2023-02-04T00:00:26.815Z,96863.59
2023-02-04T00:02:53.639Z,96897.00
2023-02-04T00:05:21.893Z,96928.59
2023-02-04T00:07:48.561Z,96954.44
2023-02-04T00:10:15.489Z,96928.06
2023-02-04T00:12:44.620Z,96964.13
2023-02-04T00:15:11.320Z,96960.19
2023-02-04T00:17:39.441Z,96905.09
2023-02-04T00:20:06.783Z,96948.69
2023-02-04T00:22:33.470Z,96897.50
2023-02-04T00:25:00.079Z,96934.59
2023-02-04T00:27:26.755Z,96922.59
2023-02-04T00:29:53.385Z,96948.16
2023-02-04T00:32:20.010Z,96945.31
2023-02-04T00:34:46.686Z,96925.44
2023-02-04T00:37:13.339Z,96922.34
2023-02-04T00:39:40.013Z,96972.75
2023-02-04T00:42:07.113Z,96948.97
2023-02-04T00:44:36.642Z,96941.91
2023-02-04T00:47:03.697Z,96947.91
2023-02-04T00:49:30.379Z,96982.66
2023-02-04T00:51:57.002Z,96964.88
2023-02-04T00:54:23.576Z,96981.59
2023-02-04T00:56:50.169Z,96964.91
2023-02-04T00:59:16.844Z,96984.22
2023-02-04T01:01:44.187Z,96979.28
2023-02-04T01:04:11.201Z,96962.78
2023-02-04T01:06:37.897Z,96989.19
2023-02-04T01:09:04.913Z,96960.47
2023-02-04T01:11:31.735Z,96883.16
2023-02-04T01:13:58.908Z,96977.44
2023-02-04T01:16:25.640Z,96981.88
2023-02-04T01:18:53.253Z,96948.16
2023-02-04T01:21:19.863Z,97008.25
2023-02-04T01:23:46.468Z,96986.03
2023-02-04T01:26:13.159Z,96988.63
2023-02-04T01:28:39.780Z,96987.84
2023-02-04T01:31:06.549Z,97001.16
2023-02-04T01:33:33.292Z,97023.94
2023-02-04T01:36:00.044Z,97009.81
2023-02-04T01:38:26.679Z,97020.78
2023-02-04T01:40:53.686Z,97006.94
2023-02-04T01:43:22.834Z,97013.97
2023-02-04T01:45:50.768Z,97039.59
2023-02-04T01:48:20.555Z,97041.66
2023-02-04T01:50:53.122Z,97032.78
2023-02-04T01:53:23.988Z,97036.19
2023-02-04T01:55:52.380Z,97022.03
2023-02-04T01:58:19.575Z,96981.28
2023-02-04T02:00:46.564Z,97017.06
2023-02-04T02:03:13.340Z,97053.66
2023-02-04T02:05:49.163Z,97035.13
2023-02-04T02:08:16.559Z,97009.47
2023-02-04T02:10:46.580Z,97072.97
2023-02-04T02:13:16.996Z,97033.44
2023-02-04T02:15:45.097Z,97071.63
2023-02-04T02:18:12.130Z,97032.69
2023-02-04T02:20:39.255Z,97050.91
2023-02-04T02:23:27.006Z,97038.91
2023-02-04T02:25:53.654Z,97047.53
2023-02-04T02:28:22.991Z,97083.13
2023-02-04T02:30:51.141Z,97081.75
2023-02-04T02:33:20.129Z,97074.66
2023-02-04T02:35:51.138Z,97098.19
2023-02-04T02:38:19.547Z,97081.97
2023-02-04T02:40:47.626Z,97094.47
2023-02-04T02:43:17.329Z,97076.63
2023-02-04T02:45:44.982Z,97118.03
2023-02-04T02:48:12.083Z,97108.88
2023-02-04T02:50:39.664Z,97113.47
2023-02-04T02:53:12.122Z,97098.78
2023-02-04T02:55:40.179Z,97087.28
2023-02-04T02:58:17.076Z,97050.66
2023-02-04T03:00:44.204Z,97126.31
2023-02-04T03:03:17.921Z,97138.56
2023-02-04T03:05:48.684Z,97099.56
2023-02-04T03:08:17.012Z,97114.69
2023-02-04T03:10:45.015Z,97134.72
2023-02-04T03:13:15.351Z,97128.06
2023-02-04T03:15:44.585Z,97090.41
2023-02-04T03:18:13.892Z,97118.66
2023-02-04T03:20:41.230Z,97149.78
2023-02-04T03:23:07.978Z,97111.53
2023-02-04T03:25:34.663Z,97119.06
2023-02-04T03:28:01.338Z,97140.25
2023-02-04T03:30:28.620Z,97145.97
2023-02-04T03:32:55.778Z,97155.88
2023-02-04T03:35:22.713Z,97143.81
2023-02-04T03:37:49.438Z,97199.81
2023-02-04T03:40:16.321Z,97166.50
2023-02-04T03:42:43.176Z,97187.94
2023-02-04T03:45:10.018Z,97179.44
2023-02-04T03:47:36.914Z,97184.38
2023-02-04T03:50:05.313Z,97210.56
2023-02-04T03:52:32.112Z,97247.19
2023-02-04T03:54:58.730Z,97263.59
2023-02-04T03:57:25.351Z,97255.50
2023-02-04T03:59:51.931Z,97258.72
2023-02-04T04:02:18.546Z,97293.22
2023-02-04T04:04:45.134Z,97240.97
2023-02-04T04:07:11.811Z,97268.31
2023-02-04T04:09:38.433Z,97254.16
2023-02-04T04:12:05.168Z,97270.38
2023-02-04T04:14:31.788Z,97241.31
2023-02-04T04:16:58.396Z,97258.47
2023-02-04T04:19:25.037Z,97285.13
2023-02-04T04:21:51.672Z,97328.00
2023-02-04T04:24:18.325Z,97328.78
2023-02-04T04:26:45.110Z,97298.97
2023-02-04T04:29:11.797Z,97318.22
2023-02-04T04:31:38.549Z,97307.19
2023-02-04T04:34:05.228Z,97291.13
2023-02-04T04:36:31.868Z,97277.88
2023-02-04T04:38:58.483Z,97330.09
2023-02-04T04:41:25.148Z,97334.13
2023-02-04T04:43:51.739Z,97336.19
2023-02-04T04:46:18.389Z,97343.97
2023-02-04T04:48:45.011Z,97334.63
2023-02-04T04:51:11.686Z,97362.47
2023-02-04T04:53:38.325Z,97382.56
2023-02-04T04:56:05.225Z,97400.84
2023-02-04T04:58:31.811Z,97391.00
2023-02-04T05:00:58.446Z,97390.59
2023-02-04T05:03:25.067Z,97418.91
2023-02-04T05:05:51.745Z,97387.41
2023-02-04T05:08:20.578Z,97394.13
2023-02-04T05:10:47.307Z,97360.66
2023-02-04T05:13:14.121Z,97403.34
2023-02-04T05:15:40.894Z,97443.31
2023-02-04T05:18:07.497Z,97423.13
2023-02-04T05:20:34.418Z,97461.34
2023-02-04T05:23:01.294Z,97464.25
2023-02-04T05:25:28.938Z,97474.94
2023-02-04T05:27:55.668Z,97442.53
2023-02-04T05:30:22.468Z,97455.84
2023-02-04T05:32:49.151Z,97453.16
2023-02-04T05:35:16.085Z,97493.88
2023-02-04T05:37:42.708Z,97446.03
2023-02-04T05:40:09.740Z,97461.03
2023-02-04T05:42:36.398Z,97479.34
2023-02-04T05:45:03.687Z,97497.88
2023-02-04T05:47:30.341Z,97527.34
2023-02-04T05:49:57.080Z,97513.56
2023-02-04T05:52:23.798Z,97508.63
2023-02-04T05:54:50.397Z,97539.34
2023-02-04T05:57:17.206Z,97528.06
2023-02-04T05:59:43.892Z,97508.28
2023-02-04T06:02:10.563Z,97550.19
2023-02-04T06:04:37.206Z,97535.88
2023-02-04T06:07:03.929Z,97579.34
2023-02-04T06:09:30.538Z,97550.44
2023-02-04T06:11:57.617Z,97487.19
2023-02-04T06:14:24.339Z,97588.72
2023-02-04T06:16:51.086Z,97584.78
2023-02-04T06:19:17.723Z,97564.75
2023-02-04T06:21:44.313Z,97563.06
2023-02-04T06:24:11.096Z,97592.22
2023-02-04T06:26:37.704Z,97596.31
2023-02-04T06:29:04.406Z,97577.88
2023-02-04T06:31:31.528Z,97601.28
2023-02-04T06:33:58.276Z,97607.03
2023-02-04T06:36:24.923Z,97593.91
2023-02-04T06:38:51.565Z,97606.13
2023-02-04T06:41:18.183Z,97587.56
2023-02-04T06:43:44.819Z,97612.22
2023-02-04T06:46:11.442Z,97651.75
2023-02-04T06:48:38.312Z,97573.16
2023-02-04T06:51:04.997Z,97624.16
2023-02-04T06:53:31.714Z,97635.69
2023-02-04T06:55:58.267Z,97656.25
2023-02-04T06:58:24.886Z,97676.16
2023-02-04T07:00:51.476Z,97671.16
2023-02-04T07:03:18.072Z,97657.69
2023-02-04T07:05:44.689Z,97636.97
2023-02-04T07:08:11.323Z,97689.16
2023-02-04T07:10:37.943Z,97682.00
2023-02-04T07:13:04.532Z,97722.41
2023-02-04T07:15:31.739Z,97679.19
2023-02-04T07:17:58.412Z,97697.06
2023-02-04T07:20:25.032Z,97640.09
2023-02-04T07:22:51.624Z,97732.78
2023-02-04T07:25:18.282Z,97701.00
2023-02-04T07:27:45.080Z,97738.25
2023-02-04T07:30:12.248Z,97707.19
2023-02-04T07:32:38.875Z,97722.84
2023-02-04T07:35:05.942Z,97715.69
2023-02-04T07:37:32.570Z,97746.34
2023-02-04T07:39:59.146Z,97721.56
2023-02-04T07:42:25.740Z,97717.41
2023-02-04T07:44:59.780Z,97760.38
2023-02-04T07:47:26.413Z,97758.69
2023-02-04T07:49:56.880Z,97709.34
2023-02-04T07:52:24.699Z,97725.66
2023-02-04T07:54:52.419Z,97773.84
2023-02-04T07:57:22.042Z,97765.38
2023-02-04T07:59:48.752Z,97767.94
2023-02-04T08:02:15.399Z,97774.72
2023-02-04T08:04:42.155Z,97761.94
2023-02-04T08:07:08.784Z,97798.69
2023-02-04T08:09:35.388Z,97783.59
2023-02-04T08:12:02.094Z,97773.38
2023-02-04T08:14:28.780Z,97799.69
2023-02-04T08:16:55.497Z,97832.09
2023-02-04T08:19:22.318Z,97774.66
2023-02-04T08:21:49.196Z,97803.34
2023-02-04T08:24:16.919Z,97784.41
2023-02-04T08:26:44.635Z,97839.16
2023-02-04T08:29:11.412Z,97807.88
2023-02-04T08:31:38.366Z,97808.09
2023-02-04T08:34:06.347Z,97829.03
2023-02-04T08:36:33.758Z,97860.53
2023-02-04T08:39:00.411Z,97843.81
2023-02-04T08:41:27.095Z,97844.03
2023-02-04T08:43:53.820Z,97877.19
2023-02-04T08:46:20.753Z,97861.94
2023-02-04T08:48:47.498Z,97877.56
2023-02-04T08:51:14.189Z,97883.03
2023-02-04T08:53:40.957Z,97857.09
2023-02-04T08:56:08.989Z,97884.50
2023-02-04T08:58:35.752Z,97847.34
2023-02-04T09:01:03.144Z,97815.72
2023-02-04T09:03:29.847Z,97904.88
2023-02-04T09:05:56.448Z,97900.25
2023-02-04T09:08:23.097Z,97887.69
2023-02-04T09:10:49.801Z,97876.13
2023-02-04T09:13:16.454Z,97905.78
2023-02-04T09:15:43.134Z,97907.50
2023-02-04T09:18:17.910Z,97848.56
2023-02-04T09:20:45.436Z,97904.19
2023-02-04T09:23:13.208Z,97900.53
2023-02-04T09:25:40.582Z,97880.84
2023-02-04T09:28:10.093Z,97917.44
2023-02-04T09:30:37.960Z,97913.84
2023-02-04T09:33:04.711Z,97906.78
2023-02-04T09:35:31.368Z,97921.94
2023-02-04T09:37:58.131Z,97935.66
2023-02-04T09:40:28.372Z,97914.97
2023-02-04T09:42:56.385Z,97940.81
2023-02-04T09:45:26.819Z,97965.81
2023-02-04T09:47:56.089Z,97956.97
2023-02-04T09:50:24.647Z,97963.97
2023-02-04T09:52:54.265Z,97946.97
2023-02-04T09:55:25.295Z,97951.16
2023-02-04T09:57:51.930Z,97957.25
2023-02-04T10:00:26.526Z,97982.72
2023-02-04T10:02:53.294Z,97931.09
2023-02-04T10:05:27.677Z,97992.41
2023-02-04T10:07:54.369Z,97994.19
2023-02-04T10:10:25.209Z,97983.72
2023-02-04T10:12:55.430Z,97928.47
2023-02-04T10:15:22.509Z,97985.81
2023-02-04T10:17:52.569Z,97971.97
2023-02-04T10:20:24.161Z,97980.00
2023-02-04T10:22:53.736Z,98010.44
2023-02-04T10:25:23.268Z,97985.69
2023-02-04T10:27:50.482Z,98004.88
2023-02-04T10:30:23.579Z,98009.97
2023-02-04T10:32:51.438Z,98018.78
2023-02-04T10:35:32.251Z,97974.84
2023-02-04T10:38:06.788Z,98023.38
2023-02-04T10:40:35.661Z,98022.25
2023-02-04T10:43:16.649Z,98014.69
2023-02-04T10:45:48.810Z,98029.28
2023-02-04T10:48:19.584Z,98013.88
2023-02-04T10:50:48.608Z,98011.06
2023-02-04T10:53:39.521Z,98011.66
2023-02-04T10:56:21.734Z,98034.97
2023-02-04T10:58:49.376Z,97956.41
2023-02-04T11:01:16.891Z,98002.91
2023-02-04T11:03:45.907Z,97976.94
2023-02-04T11:06:20.991Z,97981.72
2023-02-04T11:08:48.526Z,97982.19
2023-02-04T11:11:26.326Z,98012.81
2023-02-04T11:13:54.602Z,98016.06
2023-02-04T11:16:24.339Z,98026.66
2023-02-04T11:18:56.280Z,98023.66
2023-02-04T11:21:34.121Z,98030.56
2023-02-04T11:24:09.890Z,98034.53
2023-02-04T11:26:44.934Z,98029.53
2023-02-04T11:29:34.809Z,98033.88
2023-02-04T11:32:22.799Z,97952.25
2023-02-04T11:34:53.265Z,98023.75
2023-02-04T11:37:37.057Z,98026.38
2023-02-04T11:40:22.437Z,98025.91
2023-02-04T11:42:49.587Z,97970.50
2023-02-04T11:45:21.457Z,97973.63
2023-02-04T11:47:48.270Z,98010.03
2023-02-04T11:50:25.010Z,97999.31
2023-02-04T11:52:54.533Z,97997.69
2023-02-04T11:55:21.214Z,98036.72
2023-02-04T11:57:52.694Z,98026.63
2023-02-04T12:00:22.494Z,98034.22
2023-02-04T12:02:54.860Z,98022.97
2023-02-04T12:05:21.655Z,98009.69
2023-02-04T12:07:49.341Z,98025.13
2023-02-04T12:10:21.807Z,98027.75
2023-02-04T12:12:55.777Z,98005.81
2023-02-04T12:15:25.277Z,98027.19
2023-02-04T12:18:03.189Z,97962.34
2023-02-04T12:20:29.975Z,98037.22
2023-02-04T12:22:57.242Z,97989.84
2023-02-04T12:25:23.942Z,97974.97
2023-02-04T12:27:51.473Z,97952.53
2023-02-04T12:30:20.578Z,98014.91
2023-02-04T12:32:47.259Z,98030.47
2023-02-04T12:35:14.272Z,98047.25
2023-02-04T12:37:40.990Z,98029.56
2023-02-04T12:40:08.698Z,98040.56
2023-02-04T12:42:35.443Z,98012.31
2023-02-04T12:45:02.075Z,97990.81
2023-02-04T12:47:28.743Z,98001.34
2023-02-04T12:49:55.436Z,98046.69
2023-02-04T12:52:22.090Z,97996.22
2023-02-04T12:54:48.710Z,98038.38
2023-02-04T12:57:19.706Z,98016.22
2023-02-04T12:59:47.333Z,97990.69
2023-02-04T13:02:14.024Z,98048.00
2023-02-04T13:04:41.644Z,97995.34
2023-02-04T13:07:09.410Z,98066.25
2023-02-04T13:09:37.144Z,98027.19
2023-02-04T13:12:24.440Z,98070.13
2023-02-04T13:14:51.108Z,98031.56
2023-02-04T13:17:19.648Z,98056.03
2023-02-04T13:19:46.268Z,98038.53
2023-02-04T13:22:12.943Z,98049.50
2023-02-04T13:24:39.607Z,98065.63
2023-02-04T13:27:06.488Z,98040.22
2023-02-04T13:29:33.092Z,98062.56
2023-02-04T13:32:00.281Z,98061.78
2023-02-04T13:34:27.065Z,97955.25
2023-02-04T13:36:54.064Z,98071.44
2023-02-04T13:39:20.781Z,98041.00
2023-02-04T13:41:47.378Z,98064.59
2023-02-04T13:44:14.129Z,97948.22
2023-02-04T13:46:40.770Z,98016.81
2023-02-04T13:49:07.384Z,98089.28
2023-02-04T13:51:34.042Z,98087.91
2023-02-04T13:54:00.766Z,98019.97
2023-02-04T13:56:28.388Z,98024.53
2023-02-04T13:58:55.050Z,98069.59
2023-02-04T14:01:21.806Z,98038.84
2023-02-04T14:03:48.471Z,98035.59
2023-02-04T14:06:15.280Z,98041.59
2023-02-04T14:08:41.901Z,98066.91
2023-02-04T14:11:08.630Z,98011.97
2023-02-04T14:13:35.294Z,98058.47
2023-02-04T14:16:01.968Z,98040.94
2023-02-04T14:18:28.672Z,98085.88
2023-02-04T14:20:55.404Z,98053.25
2023-02-04T14:23:22.432Z,98017.31
2023-02-04T14:25:49.019Z,98062.28
2023-02-04T14:28:15.721Z,98095.97
2023-02-04T14:30:42.498Z,98049.13
2023-02-04T14:33:09.404Z,98064.16
2023-02-04T14:35:37.599Z,98035.38
2023-02-04T14:38:04.311Z,98112.78
2023-02-04T14:40:31.469Z,98065.81
2023-02-04T14:42:58.270Z,98076.06
2023-02-04T14:45:24.911Z,98033.66
2023-02-04T14:47:52.669Z,98068.13
2023-02-04T14:50:19.390Z,98056.34
2023-02-04T14:52:46.138Z,98069.47
2023-02-04T14:55:13.011Z,98062.75
2023-02-04T14:57:39.690Z,98083.19
2023-02-04T15:00:07.099Z,98084.16
2023-02-04T15:02:33.763Z,98088.22
2023-02-04T15:05:00.479Z,98117.59
2023-02-04T15:07:27.105Z,97940.25
2023-02-04T15:09:53.960Z,98099.63
2023-02-04T15:12:20.602Z,98120.25
2023-02-04T15:14:47.256Z,98086.56
2023-02-04T15:17:14.224Z,98110.13
2023-02-04T15:19:40.873Z,98098.03
2023-02-04T15:22:07.772Z,98120.72
2023-02-04T15:24:34.388Z,98132.50
2023-02-04T15:27:01.110Z,98055.69
2023-02-04T15:29:27.808Z,98134.47
2023-02-04T15:31:54.516Z,98103.59
2023-02-04T15:34:21.168Z,98132.16
2023-02-04T15:36:47.767Z,98094.50
2023-02-04T15:39:14.473Z,98111.84
2023-02-04T15:41:41.277Z,98131.88
2023-02-04T15:44:07.906Z,98104.88
2023-02-04T15:46:37.567Z,98103.19
2023-02-04T15:49:04.574Z,98127.91
2023-02-04T15:51:31.160Z,98112.97
2023-02-04T15:53:57.792Z,98133.84
2023-02-04T15:56:24.431Z,98136.22
2023-02-04T15:58:54.871Z,98105.31
2023-02-04T16:01:21.530Z,98080.75
2023-02-04T16:03:49.593Z,98108.28
2023-02-04T16:06:16.520Z,98081.75
2023-02-04T16:08:43.380Z,98088.59
2023-02-04T16:11:10.052Z,98149.19
2023-02-04T16:13:37.233Z,98156.63
2023-02-04T16:16:04.074Z,98150.06
2023-02-04T16:18:31.127Z,98116.50
2023-02-04T16:20:57.716Z,98060.25
2023-02-04T16:23:24.428Z,98128.97
2023-02-04T16:25:52.036Z,98152.91
2023-02-04T16:28:18.955Z,98120.69
2023-02-04T16:30:45.765Z,98155.06
2023-02-04T16:33:12.545Z,98162.34
2023-02-04T16:36:00.912Z,98137.88
2023-02-04T16:38:28.584Z,98139.00
2023-02-04T16:40:55.263Z,98135.22
2023-02-04T16:43:23.073Z,98164.25
2023-02-04T16:45:50.194Z,98081.75
2023-02-04T16:48:17.052Z,98153.03
2023-02-04T16:50:43.940Z,98151.34
2023-02-04T16:53:14.915Z,98165.59
2023-02-04T16:55:48.364Z,98166.41
2023-02-04T16:58:15.795Z,98136.41
2023-02-04T17:00:42.462Z,98163.22
2023-02-04T17:03:10.366Z,98157.03
2023-02-04T17:05:38.548Z,98153.03
2023-02-04T17:08:06.176Z,98175.19
2023-02-04T17:10:51.948Z,98178.50
2023-02-04T17:13:19.201Z,98180.06
2023-02-04T17:15:45.804Z,98131.41
2023-02-04T17:18:12.443Z,98143.25
2023-02-04T17:20:39.105Z,98174.38
2023-02-04T17:23:05.722Z,98188.06
2023-02-04T17:25:32.846Z,98154.25
2023-02-04T17:27:59.849Z,98175.44
2023-02-04T17:30:26.615Z,98172.75
2023-02-04T17:32:53.322Z,98176.66
2023-02-04T17:35:19.962Z,98113.88
2023-02-04T17:37:46.767Z,98144.56
2023-02-04T17:40:13.409Z,98149.03
2023-02-04T17:42:40.950Z,98160.34
2023-02-04T17:45:10.579Z,98171.97
2023-02-04T17:47:38.608Z,98143.94
2023-02-04T17:50:08.143Z,98147.72
2023-02-04T17:52:35.466Z,98138.19
2023-02-04T17:55:17.188Z,98178.03
2023-02-04T17:57:44.002Z,98151.53
2023-02-04T18:00:14.861Z,98177.13
2023-02-04T18:02:43.581Z,98158.41
2023-02-04T18:05:19.550Z,98186.69
2023-02-04T18:08:05.992Z,98197.84
2023-02-04T18:10:36.374Z,98170.97
2023-02-04T18:13:20.465Z,98196.28
2023-02-04T18:15:53.691Z,98178.75
2023-02-04T18:18:23.531Z,98194.69
2023-02-04T18:21:18.241Z,98192.91
2023-02-04T18:23:51.300Z,98155.75
2023-02-04T18:26:22.418Z,98184.56
2023-02-04T18:28:49.753Z,98187.22
2023-02-04T18:31:34.211Z,98179.63
2023-02-04T18:34:10.905Z,98141.84
2023-02-04T18:36:37.872Z,98179.91
2023-02-04T18:39:17.741Z,98129.06
2023-02-04T18:41:47.795Z,98175.72
2023-02-04T18:44:30.374Z,98170.97
2023-02-04T18:46:57.201Z,98171.78
2023-02-04T18:49:28.188Z,98177.81
2023-02-04T18:51:55.759Z,98145.34
2023-02-04T18:54:25.489Z,98162.06
2023-02-04T18:56:53.563Z,98125.41
2023-02-04T18:59:21.843Z,98147.31
2023-02-04T19:01:49.112Z,98153.09
2023-02-04T19:04:23.330Z,98177.59
2023-02-04T19:06:52.328Z,98177.63
2023-02-04T19:09:24.214Z,98181.00
2023-02-04T19:11:55.640Z,98166.88
2023-02-04T19:14:29.089Z,98170.03
2023-02-04T19:17:17.734Z,98187.59
2023-02-04T19:19:54.275Z,98196.75
2023-02-04T19:22:33.029Z,98189.19
2023-02-04T19:25:17.601Z,98191.97
2023-02-04T19:27:50.166Z,98194.34
2023-02-04T19:30:44.178Z,98159.25
2023-02-04T19:33:16.943Z,98153.06
2023-02-04T19:35:45.236Z,98188.50
2023-02-04T19:38:30.679Z,98190.47
2023-02-04T19:40:57.425Z,98154.56
2023-02-04T19:43:37.132Z,98158.78
2023-02-04T19:46:24.093Z,98168.00
2023-02-04T19:48:51.645Z,98175.94
2023-02-04T19:51:29.483Z,98205.66
2023-02-04T19:54:18.285Z,98202.28
2023-02-04T19:56:44.969Z,98184.31
2023-02-04T19:59:33.357Z,98198.31
2023-02-04T20:02:17.507Z,98206.88
2023-02-04T20:04:48.584Z,98159.59
2023-02-04T20:07:26.073Z,98201.69
2023-02-04T20:10:14.320Z,98206.91
2023-02-04T20:12:41.334Z,98175.34
2023-02-04T20:15:12.659Z,98210.63
2023-02-04T20:17:45.820Z,98176.25
2023-02-04T20:20:17.558Z,98205.59
2023-02-04T20:22:48.242Z,98211.34
2023-02-04T20:25:21.014Z,98218.78
2023-02-04T20:27:55.291Z,98219.03
2023-02-04T20:30:26.998Z,98163.91
2023-02-04T20:32:59.931Z,98187.44
2023-02-04T20:35:31.633Z,98233.31
2023-02-04T20:38:01.081Z,98246.28
2023-02-04T20:40:32.468Z,98236.31
2023-02-04T20:43:01.971Z,98247.25
2023-02-04T20:45:47.303Z,98245.63
2023-02-04T20:48:16.984Z,98253.13
2023-02-04T20:50:45.566Z,98195.56
2023-02-04T20:53:12.253Z,98250.34
2023-02-04T20:55:39.108Z,98248.13
2023-02-04T20:58:09.018Z,98249.53
2023-02-04T21:00:38.365Z,98254.97
2023-02-04T21:03:18.192Z,98250.81
2023-02-04T21:05:44.879Z,98228.84
2023-02-04T21:08:20.623Z,98254.78
2023-02-04T21:10:48.099Z,98257.91
2023-02-04T21:13:14.879Z,98238.59
2023-02-04T21:15:42.644Z,98227.78
2023-02-04T21:18:09.322Z,98239.25
2023-02-04T21:20:37.227Z,98210.97
2023-02-04T21:23:05.120Z,98253.38
2023-02-04T21:25:32.517Z,98244.53
2023-02-04T21:27:59.485Z,98247.88
2023-02-04T21:30:30.143Z,98238.66
2023-02-04T21:32:58.203Z,98251.25
2023-02-04T21:35:25.026Z,98265.66
2023-02-04T21:37:52.325Z,98251.22
2023-02-04T21:40:22.091Z,98259.00
2023-02-04T21:42:49.520Z,98228.69
2023-02-04T21:45:20.543Z,98263.09
2023-02-04T21:47:48.495Z,98255.72
2023-02-04T21:50:16.748Z,98240.72
2023-02-04T21:52:44.231Z,98255.72
2023-02-04T21:55:12.904Z,98223.94
2023-02-04T21:57:42.390Z,98248.75
2023-02-04T22:00:09.884Z,98199.25
2023-02-04T22:02:36.762Z,98237.66
2023-02-04T22:05:07.311Z,98255.22
2023-02-04T22:07:35.579Z,98207.59
2023-02-04T22:10:04.015Z,98260.81
2023-02-04T22:12:30.794Z,98248.88
2023-02-04T22:15:15.886Z,98266.25
2023-02-04T22:17:42.899Z,98242.22
2023-02-04T22:20:10.594Z,98230.25
2023-02-04T22:22:37.233Z,98235.97
2023-02-04T22:25:04.444Z,98243.00
2023-02-04T22:27:31.124Z,98213.19
2023-02-04T22:29:57.771Z,98246.38
2023-02-04T22:32:24.491Z,98257.31
2023-02-04T22:34:51.176Z,98230.50
2023-02-04T22:37:17.812Z,98257.53
2023-02-04T22:39:44.730Z,98227.00
2023-02-04T22:42:11.445Z,98252.66
2023-02-04T22:44:38.108Z,98212.94
2023-02-04T22:47:05.128Z,98235.25
2023-02-04T22:49:33.462Z,98234.81
2023-02-04T22:52:00.259Z,98232.06
2023-02-04T22:54:26.938Z,98221.72
2023-02-04T22:56:53.671Z,98240.19
2023-02-04T22:59:20.353Z,98235.94
2023-02-04T23:01:47.070Z,98194.56
2023-02-04T23:04:13.750Z,98239.50
2023-02-04T23:06:40.497Z,98242.25
2023-02-04T23:09:07.341Z,98243.47
2023-02-04T23:11:34.123Z,98228.63
2023-02-04T23:14:00.855Z,98248.78
2023-02-04T23:16:27.656Z,98233.41
2023-02-04T23:18:54.356Z,98216.81
2023-02-04T23:21:22.962Z,98225.94
2023-02-04T23:23:50.890Z,98216.19
2023-02-04T23:26:21.588Z,98224.31
2023-02-04T23:28:48.548Z,98248.84
2023-02-04T23:31:15.254Z,98230.19
2023-02-04T23:33:41.866Z,98222.00
2023-02-04T23:36:08.760Z,98239.66
2023-02-04T23:38:35.396Z,98262.88
2023-02-04T23:41:02.305Z,98228.59
2023-02-04T23:43:29.273Z,98252.47
2023-02-04T23:46:00.153Z,98221.03
2023-02-04T23:48:27.037Z,98215.06
2023-02-04T23:50:56.925Z,98213.22
2023-02-04T23:53:24.284Z,98231.09
2023-02-04T23:55:51.502Z,98258.41
2023-02-04T23:58:18.728Z,98223.22
